TOM74G EGTE-LCPH
Flight info
| Callsign | TOM74G |
|---|---|
| Flight time | N/A |
| Altitude | 33000 |
| Route | GIBSO L620 SAM M140 DVR UL9 KONAN DCT KOK UL607 FERDI DCT SPI DCT ULNOK DCT VIBOM DCT NOMBO DCT RIDAR DCT LATLO DCT OBEDI DCT KLAGY DCT MAGAM DCT VABEK UL603 OLOTA DCT RUGAS DCT PEREN UN128 LMO DCT RIKSO UP14 ZAFLE DCT BENEM DCT EVENO M601 DASNI M32 TOBAL |
| Aircraft | B738/M-SDE2E3FGHIRWXY/LB1 |
Departure
| Time | 2026-05-05 16:09 |
|---|---|
| Airport | Exeter International Airport (EGTE) |
Arrival
| Time | N/A |
|---|---|
| Airport | Paphos International Airport (LCPH) |
| Time | Latitude | Longitude | Altitude | Speed | Heading |
|---|---|---|---|---|---|
| 2026-05-05 15:57 | 50.73107 | -3.41830 | 111 ft | 0 kts | 131° |
| 2026-05-05 15:57 | 50.73108 | -3.41830 | 111 ft | 0 kts | 131° |
| 2026-05-05 16:04 | 50.73110 | -3.41834 | 111 ft | 3 kts | 131° |
| 2026-05-05 16:04 | 50.73129 | -3.41862 | 110 ft | 4 kts | 151° |
| 2026-05-05 16:04 | 50.73152 | -3.41871 | 108 ft | 4 kts | 200° |
| 2026-05-05 16:04 | 50.73162 | -3.41860 | 108 ft | 1 kts | 239° |
| 2026-05-05 16:05 | 50.73162 | -3.41861 | 108 ft | 0 kts | 239° |
| 2026-05-05 16:06 | 50.73143 | -3.41912 | 108 ft | 13 kts | 240° |
| 2026-05-05 16:06 | 50.73086 | -3.42096 | 107 ft | 20 kts | 246° |
| 2026-05-05 16:06 | 50.73066 | -3.42310 | 108 ft | 20 kts | 273° |
| 2026-05-05 16:07 | 50.73071 | -3.42525 | 109 ft | 19 kts | 272° |
| 2026-05-05 16:07 | 50.73110 | -3.42720 | 109 ft | 19 kts | 308° |
| 2026-05-05 16:07 | 50.73218 | -3.42748 | 109 ft | 15 kts | 57° |
| 2026-05-05 16:07 | 50.73222 | -3.42726 | 110 ft | 0 kts | 77° |
| 2026-05-05 16:08 | 50.73289 | -3.42276 | 112 ft | 83 kts | 76° |
| 2026-05-05 16:08 | 50.73486 | -3.41030 | 110 ft | 151 kts | 75° |
| 2026-05-05 16:08 | 50.73807 | -3.39176 | 437 ft | 187 kts | 75° |
| 2026-05-05 16:09 | 50.73985 | -3.37071 | 1379 ft | 198 kts | 86° |
| 2026-05-05 16:09 | 50.73980 | -3.34903 | 2371 ft | 206 kts | 88° |
| 2026-05-05 16:09 | 50.73968 | -3.32488 | 2667 ft | 231 kts | 88° |
| 2026-05-05 16:09 | 50.73960 | -3.29929 | 3214 ft | 235 kts | 87° |
| 2026-05-05 16:10 | 50.73966 | -3.27316 | 3740 ft | 243 kts | 88° |
| 2026-05-05 16:10 | 50.73987 | -3.24603 | 4144 ft | 258 kts | 87° |
| 2026-05-05 16:10 | 50.74016 | -3.21679 | 4641 ft | 271 kts | 86° |
| 2026-05-05 16:10 | 50.74050 | -3.18698 | 5468 ft | 273 kts | 87° |
| 2026-05-05 16:11 | 50.74088 | -3.15671 | 6198 ft | 279 kts | 87° |
| 2026-05-05 16:11 | 50.74223 | -3.06395 | 8450 ft | 284 kts | 87° |
| 2026-05-05 16:12 | 50.74271 | -3.03262 | 9227 ft | 286 kts | 86° |
| 2026-05-05 16:12 | 50.74368 | -2.96955 | 10408 ft | 300 kts | 88° |
| 2026-05-05 16:13 | 50.74540 | -2.86045 | 10885 ft | 361 kts | 88° |
| 2026-05-05 16:13 | 50.74603 | -2.81976 | 11060 ft | 379 kts | 88° |
| 2026-05-05 16:13 | 50.74666 | -2.77758 | 11467 ft | 387 kts | 88° |
| 2026-05-05 16:14 | 50.74783 | -2.69199 | 12758 ft | 391 kts | 89° |
| 2026-05-05 16:14 | 50.74894 | -2.60533 | 13936 ft | 398 kts | 89° |
| 2026-05-05 16:15 | 50.75095 | -2.51805 | 14979 ft | 404 kts | 83° |
| 2026-05-05 16:15 | 50.76495 | -2.43140 | 15986 ft | 410 kts | 73° |
| 2026-05-05 16:16 | 50.78122 | -2.34421 | 16953 ft | 417 kts | 74° |
| 2026-05-05 16:16 | 50.79714 | -2.25524 | 17931 ft | 424 kts | 74° |
| 2026-05-05 16:17 | 50.81310 | -2.16470 | 18779 ft | 430 kts | 74° |
| 2026-05-05 16:17 | 50.82116 | -2.11882 | 19182 ft | 433 kts | 75° |
| 2026-05-05 16:18 | 50.83741 | -2.02633 | 19955 ft | 440 kts | 75° |
| 2026-05-05 16:18 | 50.84550 | -1.98002 | 20347 ft | 443 kts | 75° |
| 2026-05-05 16:18 | 50.86200 | -1.88544 | 21085 ft | 449 kts | 75° |
| 2026-05-05 16:19 | 50.87033 | -1.83760 | 21448 ft | 452 kts | 75° |
| 2026-05-05 16:19 | 50.87870 | -1.78943 | 21799 ft | 455 kts | 75° |
| 2026-05-05 16:19 | 50.89555 | -1.69216 | 22477 ft | 461 kts | 75° |
| 2026-05-05 16:20 | 50.91251 | -1.59375 | 23165 ft | 465 kts | 75° |
| 2026-05-05 16:20 | 50.92952 | -1.49455 | 23806 ft | 469 kts | 76° |
| 2026-05-05 16:21 | 50.94663 | -1.39424 | 24382 ft | 472 kts | 76° |
| 2026-05-05 16:22 | 50.96572 | -1.24053 | 25232 ft | 475 kts | 84° |
| 2026-05-05 16:22 | 50.97389 | -1.13616 | 25748 ft | 478 kts | 84° |
| 2026-05-05 16:23 | 50.98236 | -1.03125 | 26356 ft | 479 kts | 84° |
| 2026-05-05 16:23 | 50.98674 | -0.97908 | 26755 ft | 477 kts | 84° |
| 2026-05-05 16:23 | 50.99553 | -0.87560 | 27491 ft | 474 kts | 84° |
| 2026-05-05 16:24 | 50.99996 | -0.82324 | 27825 ft | 474 kts | 84° |
| 2026-05-05 16:24 | 51.00433 | -0.77143 | 28172 ft | 473 kts | 84° |
| 2026-05-05 16:24 | 51.01294 | -0.66820 | 28935 ft | 471 kts | 85° |
| 2026-05-05 16:25 | 51.01720 | -0.61666 | 29283 ft | 470 kts | 85° |
| 2026-05-05 16:25 | 51.02561 | -0.51393 | 29953 ft | 469 kts | 85° |
| 2026-05-05 16:25 | 51.02974 | -0.46319 | 30239 ft | 468 kts | 85° |
| 2026-05-05 16:26 | 51.03805 | -0.36013 | 30785 ft | 467 kts | 85° |
| 2026-05-05 16:26 | 51.04616 | -0.25861 | 31305 ft | 466 kts | 85° |
| 2026-05-05 16:27 | 51.05020 | -0.20754 | 31552 ft | 465 kts | 85° |
| 2026-05-05 16:27 | 51.05422 | -0.15654 | 31825 ft | 465 kts | 85° |
| 2026-05-05 16:27 | 51.05823 | -0.10557 | 32087 ft | 464 kts | 85° |
| 2026-05-05 16:27 | 51.06221 | -0.05474 | 32323 ft | 464 kts | 85° |
| 2026-05-05 16:28 | 51.06616 | -0.00393 | 32554 ft | 464 kts | 85° |
| 2026-05-05 16:28 | 51.07007 | 0.04698 | 32803 ft | 463 kts | 85° |
| 2026-05-05 16:28 | 51.07394 | 0.09770 | 33067 ft | 462 kts | 85° |
| 2026-05-05 16:28 | 51.07774 | 0.14843 | 33407 ft | 462 kts | 85° |
| 2026-05-05 16:29 | 51.08152 | 0.19903 | 33616 ft | 462 kts | 85° |
| 2026-05-05 16:29 | 51.08530 | 0.24979 | 33856 ft | 462 kts | 85° |
| 2026-05-05 16:29 | 51.08909 | 0.30055 | 34112 ft | 461 kts | 85° |
| 2026-05-05 16:29 | 51.09284 | 0.35102 | 34298 ft | 461 kts | 85° |
| 2026-05-05 16:30 | 51.09660 | 0.40176 | 34438 ft | 462 kts | 85° |
| 2026-05-05 16:30 | 51.10035 | 0.45250 | 34576 ft | 462 kts | 85° |
| 2026-05-05 16:30 | 51.10409 | 0.50323 | 34734 ft | 462 kts | 85° |
| 2026-05-05 16:30 | 51.10776 | 0.55398 | 34884 ft | 462 kts | 85° |
| 2026-05-05 16:31 | 51.11140 | 0.60469 | 35001 ft | 462 kts | 86° |
| 2026-05-05 16:31 | 51.11498 | 0.65553 | 35072 ft | 463 kts | 86° |
| 2026-05-05 16:31 | 51.12211 | 0.75767 | 34928 ft | 464 kts | 86° |
| 2026-05-05 16:32 | 51.12919 | 0.85932 | 34931 ft | 461 kts | 86° |
| 2026-05-05 16:32 | 51.13500 | 0.94336 | 34930 ft | 459 kts | 86° |
| 2026-05-05 16:33 | 51.14191 | 1.04436 | 34936 ft | 458 kts | 86° |
| 2026-05-05 16:33 | 51.14984 | 1.16165 | 34930 ft | 458 kts | 86° |
| 2026-05-05 16:34 | 51.15550 | 1.24597 | 34932 ft | 458 kts | 86° |
| 2026-05-05 16:34 | 51.16202 | 1.34698 | 34923 ft | 458 kts | 89° |
| 2026-05-05 16:35 | 51.15982 | 1.44712 | 34924 ft | 456 kts | 97° |
| 2026-05-05 16:35 | 51.15411 | 1.54780 | 34912 ft | 457 kts | 98° |
| 2026-05-05 16:36 | 51.14872 | 1.64887 | 34918 ft | 458 kts | 97° |
| 2026-05-05 16:36 | 51.14364 | 1.75007 | 34912 ft | 459 kts | 97° |
| 2026-05-05 16:37 | 51.13855 | 1.85177 | 34909 ft | 460 kts | 97° |
| 2026-05-05 16:37 | 51.13336 | 1.95337 | 34909 ft | 461 kts | 98° |
| 2026-05-05 16:38 | 51.12797 | 2.05526 | 34914 ft | 462 kts | 98° |
| 2026-05-05 16:38 | 51.12244 | 2.15708 | 34911 ft | 462 kts | 98° |
| 2026-05-05 16:39 | 51.11690 | 2.25900 | 34906 ft | 462 kts | 98° |
| 2026-05-05 16:39 | 51.11132 | 2.36088 | 34895 ft | 462 kts | 98° |
| 2026-05-05 16:40 | 51.10570 | 2.46202 | 34895 ft | 461 kts | 98° |
| 2026-05-05 16:40 | 51.10000 | 2.56360 | 34900 ft | 461 kts | 98° |
| 2026-05-05 16:41 | 51.09304 | 2.66472 | 34900 ft | 457 kts | 106° |
| 2026-05-05 16:41 | 51.07614 | 2.76164 | 34907 ft | 454 kts | 110° |
| 2026-05-05 16:42 | 51.05788 | 2.85766 | 34898 ft | 454 kts | 110° |
| 2026-05-05 16:42 | 51.03995 | 2.95381 | 34901 ft | 454 kts | 110° |
| 2026-05-05 16:43 | 51.02227 | 3.05002 | 34897 ft | 453 kts | 110° |
| 2026-05-05 16:43 | 51.00458 | 3.14620 | 34895 ft | 454 kts | 110° |
| 2026-05-05 16:44 | 50.98684 | 3.24217 | 34890 ft | 454 kts | 110° |
| 2026-05-05 16:44 | 50.96898 | 3.33821 | 34874 ft | 454 kts | 110° |
| 2026-05-05 16:45 | 50.95104 | 3.43427 | 34873 ft | 454 kts | 110° |
| 2026-05-05 16:45 | 50.93305 | 3.53024 | 34872 ft | 454 kts | 111° |
| 2026-05-05 16:46 | 50.91494 | 3.62618 | 34870 ft | 454 kts | 111° |
| 2026-05-05 16:46 | 50.89662 | 3.72205 | 34871 ft | 454 kts | 111° |
| 2026-05-05 16:47 | 50.87829 | 3.81708 | 34869 ft | 455 kts | 111° |
| 2026-05-05 16:47 | 50.85968 | 3.91345 | 34865 ft | 455 kts | 111° |
| 2026-05-05 16:48 | 50.84116 | 4.00914 | 34873 ft | 455 kts | 111° |
| 2026-05-05 16:48 | 50.82257 | 4.10482 | 34867 ft | 455 kts | 111° |
| 2026-05-05 16:49 | 50.80395 | 4.20016 | 34877 ft | 454 kts | 111° |
| 2026-05-05 16:49 | 50.78520 | 4.29564 | 34882 ft | 454 kts | 112° |
| 2026-05-05 16:50 | 50.76654 | 4.39023 | 34887 ft | 454 kts | 112° |
| 2026-05-05 16:50 | 50.74767 | 4.48538 | 34884 ft | 454 kts | 112° |
| 2026-05-05 16:51 | 50.72874 | 4.58041 | 34874 ft | 454 kts | 112° |
| 2026-05-05 16:51 | 50.70974 | 4.67535 | 34867 ft | 454 kts | 112° |
| 2026-05-05 16:52 | 50.69065 | 4.77021 | 34864 ft | 453 kts | 112° |
| 2026-05-05 16:52 | 50.67151 | 4.86492 | 34855 ft | 453 kts | 112° |
| 2026-05-05 16:53 | 50.65227 | 4.95966 | 34858 ft | 454 kts | 112° |
| 2026-05-05 16:53 | 50.63294 | 5.05437 | 34856 ft | 455 kts | 113° |
| 2026-05-05 16:54 | 50.61350 | 5.14917 | 34851 ft | 456 kts | 113° |
| 2026-05-05 16:54 | 50.59389 | 5.24444 | 34850 ft | 457 kts | 113° |
| 2026-05-05 16:55 | 50.57427 | 5.33931 | 34861 ft | 458 kts | 113° |
| 2026-05-05 16:55 | 50.55445 | 5.43472 | 34847 ft | 459 kts | 113° |
| 2026-05-05 16:56 | 50.53460 | 5.53007 | 34868 ft | 459 kts | 113° |
| 2026-05-05 16:56 | 50.51453 | 5.62566 | 34850 ft | 462 kts | 114° |
| 2026-05-05 16:57 | 50.49347 | 5.72117 | 34839 ft | 462 kts | 115° |
| 2026-05-05 16:57 | 50.47183 | 5.81603 | 34829 ft | 461 kts | 115° |
| 2026-05-05 16:58 | 50.45029 | 5.91057 | 34832 ft | 459 kts | 115° |
| 2026-05-05 16:58 | 50.42885 | 6.00491 | 34830 ft | 459 kts | 115° |
| 2026-05-05 16:59 | 50.40739 | 6.09913 | 34817 ft | 459 kts | 115° |
| 2026-05-05 16:59 | 50.38603 | 6.19260 | 34811 ft | 458 kts | 115° |
| 2026-05-05 17:00 | 50.36446 | 6.28649 | 34813 ft | 458 kts | 115° |
| 2026-05-05 17:00 | 50.34268 | 6.38087 | 34810 ft | 459 kts | 116° |
| 2026-05-05 17:01 | 50.32089 | 6.47491 | 34806 ft | 460 kts | 116° |
| 2026-05-05 17:01 | 50.29915 | 6.56830 | 34803 ft | 461 kts | 116° |
| 2026-05-05 17:02 | 50.27715 | 6.66241 | 34817 ft | 462 kts | 116° |
| 2026-05-05 17:02 | 50.25497 | 6.75685 | 34815 ft | 464 kts | 116° |
| 2026-05-05 17:03 | 50.23266 | 6.85150 | 34829 ft | 465 kts | 116° |
| 2026-05-05 17:03 | 50.21020 | 6.94634 | 34813 ft | 466 kts | 115° |
| 2026-05-05 17:04 | 50.18771 | 7.04105 | 34809 ft | 465 kts | 116° |
| 2026-05-05 17:04 | 50.16510 | 7.13562 | 34836 ft | 464 kts | 116° |
| 2026-05-05 17:05 | 50.14243 | 7.23003 | 34821 ft | 464 kts | 116° |
| 2026-05-05 17:05 | 50.11975 | 7.32412 | 34835 ft | 464 kts | 116° |
| 2026-05-05 17:06 | 50.09699 | 7.41817 | 34828 ft | 464 kts | 116° |
| 2026-05-05 17:06 | 50.07416 | 7.51213 | 34835 ft | 464 kts | 116° |
| 2026-05-05 17:07 | 50.05128 | 7.60588 | 34826 ft | 464 kts | 116° |
| 2026-05-05 17:07 | 50.02824 | 7.69986 | 34828 ft | 464 kts | 116° |
| 2026-05-05 17:08 | 50.00515 | 7.79369 | 34816 ft | 465 kts | 116° |
| 2026-05-05 17:08 | 49.98197 | 7.88749 | 34835 ft | 465 kts | 116° |
| 2026-05-05 17:09 | 49.95869 | 7.98129 | 34828 ft | 466 kts | 116° |
| 2026-05-05 17:09 | 49.93532 | 8.07515 | 34840 ft | 466 kts | 116° |
| 2026-05-05 17:10 | 49.91186 | 8.16894 | 34836 ft | 467 kts | 116° |
| 2026-05-05 17:10 | 49.88832 | 8.26284 | 34844 ft | 467 kts | 116° |
| 2026-05-05 17:11 | 49.86473 | 8.35648 | 34838 ft | 467 kts | 116° |
| 2026-05-05 17:11 | 49.83652 | 8.44530 | 34824 ft | 458 kts | 130° |
| 2026-05-05 17:12 | 49.79713 | 8.52179 | 34819 ft | 454 kts | 134° |
| 2026-05-05 17:12 | 49.75717 | 8.59736 | 34824 ft | 453 kts | 134° |
| 2026-05-05 17:13 | 49.71764 | 8.67316 | 34822 ft | 453 kts | 134° |
| 2026-05-05 17:13 | 49.67824 | 8.74921 | 34823 ft | 453 kts | 133° |
| 2026-05-05 17:14 | 49.63889 | 8.82506 | 34823 ft | 452 kts | 133° |
| 2026-05-05 17:14 | 49.59955 | 8.90062 | 34829 ft | 452 kts | 133° |
| 2026-05-05 17:15 | 49.56008 | 8.97622 | 34824 ft | 452 kts | 133° |
| 2026-05-05 17:15 | 49.52065 | 9.05160 | 34831 ft | 452 kts | 133° |
| 2026-05-05 17:16 | 49.48105 | 9.12704 | 34826 ft | 453 kts | 134° |
| 2026-05-05 17:16 | 49.44357 | 9.20534 | 34837 ft | 457 kts | 128° |
| 2026-05-05 17:17 | 49.40905 | 9.28742 | 34826 ft | 458 kts | 127° |
| 2026-05-05 17:17 | 49.37456 | 9.36975 | 34831 ft | 458 kts | 127° |
| 2026-05-05 17:18 | 49.33979 | 9.45153 | 34822 ft | 459 kts | 127° |
| 2026-05-05 17:18 | 49.30467 | 9.53335 | 34827 ft | 459 kts | 127° |
| 2026-05-05 17:19 | 49.26946 | 9.61508 | 34827 ft | 460 kts | 127° |
| 2026-05-05 17:19 | 49.23418 | 9.69677 | 34829 ft | 460 kts | 127° |
| 2026-05-05 17:20 | 49.19889 | 9.77825 | 34829 ft | 460 kts | 127° |
| 2026-05-05 17:20 | 49.16350 | 9.85977 | 34828 ft | 460 kts | 127° |
| 2026-05-05 17:21 | 49.12831 | 9.94062 | 34832 ft | 460 kts | 127° |
| 2026-05-05 17:22 | 49.07514 | 10.06230 | 34829 ft | 459 kts | 128° |
| 2026-05-05 17:22 | 49.03424 | 10.13564 | 34842 ft | 452 kts | 139° |
| 2026-05-05 17:23 | 48.99676 | 10.19133 | 34839 ft | 452 kts | 140° |
| 2026-05-05 17:23 | 48.95181 | 10.25800 | 34847 ft | 451 kts | 139° |
| 2026-05-05 17:24 | 48.90720 | 10.32500 | 34852 ft | 450 kts | 139° |
| 2026-05-05 17:24 | 48.86282 | 10.39192 | 34856 ft | 449 kts | 139° |
| 2026-05-05 17:25 | 48.81845 | 10.45871 | 34855 ft | 449 kts | 139° |
| 2026-05-05 17:25 | 48.77407 | 10.52532 | 34849 ft | 449 kts | 139° |
| 2026-05-05 17:26 | 48.72966 | 10.59178 | 34851 ft | 449 kts | 139° |
| 2026-05-05 17:26 | 48.68524 | 10.65812 | 34847 ft | 449 kts | 139° |
| 2026-05-05 17:27 | 48.64082 | 10.72437 | 34843 ft | 449 kts | 139° |
| 2026-05-05 17:27 | 48.59628 | 10.79070 | 34833 ft | 450 kts | 137° |
| 2026-05-05 17:28 | 48.55852 | 10.86681 | 34842 ft | 456 kts | 127° |
| 2026-05-05 17:28 | 48.52395 | 10.94729 | 34834 ft | 457 kts | 127° |
| 2026-05-05 17:29 | 48.48931 | 11.02766 | 34830 ft | 458 kts | 127° |
| 2026-05-05 17:29 | 48.45431 | 11.10784 | 34825 ft | 458 kts | 128° |
| 2026-05-05 17:30 | 48.41909 | 11.18788 | 34825 ft | 459 kts | 128° |
| 2026-05-05 17:30 | 48.38372 | 11.26796 | 34818 ft | 459 kts | 128° |
| 2026-05-05 17:31 | 48.34829 | 11.34794 | 34819 ft | 460 kts | 128° |
| 2026-05-05 17:31 | 48.31284 | 11.42777 | 34810 ft | 460 kts | 128° |
| 2026-05-05 17:32 | 48.27724 | 11.50769 | 34797 ft | 460 kts | 128° |
| 2026-05-05 17:32 | 48.24184 | 11.58694 | 34805 ft | 460 kts | 128° |
| 2026-05-05 17:33 | 48.20618 | 11.66654 | 34801 ft | 460 kts | 128° |
| 2026-05-05 17:33 | 48.17047 | 11.74603 | 34804 ft | 459 kts | 128° |
| 2026-05-05 17:34 | 48.13474 | 11.82530 | 34797 ft | 459 kts | 129° |
| 2026-05-05 17:34 | 48.09895 | 11.90449 | 34809 ft | 459 kts | 129° |
| 2026-05-05 17:35 | 48.06314 | 11.98350 | 34807 ft | 459 kts | 129° |
| 2026-05-05 17:35 | 48.02730 | 12.06235 | 34801 ft | 459 kts | 129° |
| 2026-05-05 17:36 | 47.99140 | 12.14110 | 34797 ft | 459 kts | 129° |
| 2026-05-05 17:36 | 47.95544 | 12.21975 | 34791 ft | 459 kts | 129° |
| 2026-05-05 17:37 | 47.91940 | 12.29837 | 34793 ft | 459 kts | 129° |
| 2026-05-05 17:37 | 47.88329 | 12.37692 | 34787 ft | 460 kts | 129° |
| 2026-05-05 17:38 | 47.84708 | 12.45547 | 34786 ft | 461 kts | 129° |
| 2026-05-05 17:38 | 47.81073 | 12.53411 | 34790 ft | 461 kts | 129° |
| 2026-05-05 17:39 | 47.77429 | 12.61275 | 34791 ft | 462 kts | 129° |
| 2026-05-05 17:39 | 47.73777 | 12.69143 | 34799 ft | 463 kts | 129° |
| 2026-05-05 17:40 | 47.70105 | 12.77023 | 34807 ft | 466 kts | 129° |
| 2026-05-05 17:40 | 47.66056 | 12.84406 | 34809 ft | 461 kts | 140° |
| 2026-05-05 17:41 | 47.61452 | 12.91088 | 34802 ft | 462 kts | 140° |
| 2026-05-05 17:41 | 47.56834 | 12.97766 | 34792 ft | 464 kts | 140° |
| 2026-05-05 17:42 | 47.52251 | 13.04485 | 34799 ft | 465 kts | 139° |
| 2026-05-05 17:42 | 47.47660 | 13.11238 | 34821 ft | 465 kts | 139° |
| 2026-05-05 17:43 | 47.43064 | 13.17983 | 34826 ft | 466 kts | 139° |
| 2026-05-05 17:43 | 47.38486 | 13.24687 | 34842 ft | 467 kts | 139° |
| 2026-05-05 17:44 | 47.33869 | 13.31420 | 34840 ft | 467 kts | 139° |
| 2026-05-05 17:44 | 47.29531 | 13.38584 | 34868 ft | 469 kts | 133° |
| 2026-05-05 17:45 | 47.25452 | 13.46099 | 34861 ft | 470 kts | 132° |
| 2026-05-05 17:45 | 47.21378 | 13.53614 | 34875 ft | 469 kts | 133° |
| 2026-05-05 17:46 | 47.17282 | 13.61062 | 34879 ft | 468 kts | 133° |
| 2026-05-05 17:46 | 47.13178 | 13.68460 | 34902 ft | 467 kts | 133° |
| 2026-05-05 17:47 | 47.09066 | 13.75843 | 34905 ft | 467 kts | 133° |
| 2026-05-05 17:47 | 47.04941 | 13.83233 | 34909 ft | 468 kts | 133° |
| 2026-05-05 17:48 | 47.00817 | 13.90604 | 34908 ft | 469 kts | 133° |
| 2026-05-05 17:48 | 46.96673 | 13.97992 | 34909 ft | 470 kts | 133° |
| 2026-05-05 17:49 | 46.92524 | 14.05369 | 34909 ft | 470 kts | 133° |
| 2026-05-05 17:49 | 46.88359 | 14.12755 | 34913 ft | 470 kts | 133° |
| 2026-05-05 17:50 | 46.84184 | 14.20138 | 34926 ft | 471 kts | 133° |
| 2026-05-05 17:50 | 46.80001 | 14.27516 | 34930 ft | 471 kts | 133° |
| 2026-05-05 17:51 | 46.75837 | 14.34843 | 34931 ft | 471 kts | 133° |
| 2026-05-05 17:51 | 46.71630 | 14.42225 | 34936 ft | 471 kts | 133° |
| 2026-05-05 17:52 | 46.67456 | 14.49531 | 34935 ft | 471 kts | 133° |
| 2026-05-05 17:52 | 46.63246 | 14.56882 | 34935 ft | 471 kts | 133° |
| 2026-05-05 17:53 | 46.59068 | 14.64160 | 34938 ft | 471 kts | 133° |
| 2026-05-05 17:53 | 46.54852 | 14.71496 | 34942 ft | 471 kts | 133° |
| 2026-05-05 17:54 | 46.50632 | 14.78806 | 34954 ft | 471 kts | 133° |
| 2026-05-05 17:54 | 46.46438 | 14.86072 | 34952 ft | 471 kts | 133° |
| 2026-05-05 17:55 | 46.42221 | 14.93384 | 34954 ft | 472 kts | 133° |
| 2026-05-05 17:55 | 46.38033 | 15.00639 | 34944 ft | 472 kts | 133° |
| 2026-05-05 17:56 | 46.33834 | 15.07898 | 34951 ft | 472 kts | 133° |
| 2026-05-05 17:56 | 46.29609 | 15.15179 | 34950 ft | 473 kts | 133° |
| 2026-05-05 17:57 | 46.25381 | 15.22448 | 34952 ft | 473 kts | 133° |
| 2026-05-05 17:57 | 46.21134 | 15.29730 | 34955 ft | 474 kts | 133° |
| 2026-05-05 17:58 | 46.16876 | 15.37012 | 34954 ft | 475 kts | 133° |
| 2026-05-05 17:58 | 46.12606 | 15.44298 | 34960 ft | 476 kts | 133° |
| 2026-05-05 17:59 | 46.08322 | 15.51590 | 34960 ft | 477 kts | 133° |
| 2026-05-05 17:59 | 46.04029 | 15.58881 | 34960 ft | 478 kts | 133° |
| 2026-05-05 18:00 | 46.00458 | 15.64941 | 34973 ft | 478 kts | 133° |
| 2026-05-05 18:00 | 45.95431 | 15.73501 | 34959 ft | 480 kts | 132° |
| 2026-05-05 18:01 | 45.91256 | 15.80992 | 34970 ft | 480 kts | 131° |
| 2026-05-05 18:01 | 45.87113 | 15.88519 | 34971 ft | 481 kts | 131° |
| 2026-05-05 18:02 | 45.82944 | 15.96045 | 34968 ft | 482 kts | 131° |
| 2026-05-05 18:02 | 45.78760 | 16.03544 | 34967 ft | 482 kts | 131° |
| 2026-05-05 18:03 | 45.74563 | 16.11034 | 34964 ft | 482 kts | 131° |
| 2026-05-05 18:03 | 45.70376 | 16.18484 | 34966 ft | 482 kts | 131° |
| 2026-05-05 18:04 | 45.66162 | 16.25964 | 34965 ft | 482 kts | 131° |
| 2026-05-05 18:04 | 45.61939 | 16.33443 | 34972 ft | 482 kts | 131° |
| 2026-05-05 18:05 | 45.57745 | 16.40850 | 34982 ft | 483 kts | 131° |
| 2026-05-05 18:05 | 45.53521 | 16.48289 | 34979 ft | 483 kts | 132° |
| 2026-05-05 18:06 | 45.49279 | 16.55742 | 34980 ft | 483 kts | 132° |
| 2026-05-05 18:06 | 45.45037 | 16.63174 | 34979 ft | 483 kts | 132° |
| 2026-05-05 18:07 | 45.40785 | 16.70604 | 34979 ft | 483 kts | 132° |
| 2026-05-05 18:07 | 45.36553 | 16.77980 | 34978 ft | 484 kts | 132° |
| 2026-05-05 18:08 | 45.32291 | 16.85389 | 34980 ft | 484 kts | 132° |
| 2026-05-05 18:08 | 45.28021 | 16.92792 | 34978 ft | 484 kts | 132° |
| 2026-05-05 18:09 | 45.23743 | 17.00189 | 34992 ft | 484 kts | 132° |
| 2026-05-05 18:09 | 45.20181 | 17.06333 | 34981 ft | 485 kts | 132° |
| 2026-05-05 18:10 | 45.15190 | 17.14921 | 34977 ft | 485 kts | 132° |
| 2026-05-05 18:10 | 45.11591 | 17.21098 | 34991 ft | 485 kts | 132° |
| 2026-05-05 18:11 | 45.07292 | 17.28457 | 34989 ft | 485 kts | 132° |
| 2026-05-05 18:11 | 45.03012 | 17.35764 | 34996 ft | 485 kts | 133° |
| 2026-05-05 18:12 | 44.98705 | 17.43101 | 34989 ft | 485 kts | 133° |
| 2026-05-05 18:12 | 44.94388 | 17.50433 | 34988 ft | 486 kts | 133° |
| 2026-05-05 18:13 | 44.90065 | 17.57758 | 34988 ft | 486 kts | 133° |
| 2026-05-05 18:13 | 44.85726 | 17.65091 | 34981 ft | 486 kts | 133° |
| 2026-05-05 18:14 | 44.81386 | 17.72406 | 34988 ft | 486 kts | 133° |
| 2026-05-05 18:14 | 44.77045 | 17.79703 | 34984 ft | 486 kts | 133° |
| 2026-05-05 18:15 | 44.72694 | 17.86999 | 34982 ft | 486 kts | 133° |
| 2026-05-05 18:15 | 44.68363 | 17.94243 | 34976 ft | 487 kts | 133° |
| 2026-05-05 18:16 | 44.64004 | 18.01516 | 34994 ft | 487 kts | 133° |
| 2026-05-05 18:16 | 44.59628 | 18.08798 | 34999 ft | 488 kts | 133° |
| 2026-05-05 18:17 | 44.55247 | 18.16070 | 34996 ft | 488 kts | 133° |
| 2026-05-05 18:17 | 44.50851 | 18.23347 | 34999 ft | 488 kts | 133° |
| 2026-05-05 18:18 | 44.46458 | 18.30601 | 35004 ft | 488 kts | 133° |
| 2026-05-05 18:18 | 44.42062 | 18.37844 | 35000 ft | 488 kts | 133° |
| 2026-05-05 18:19 | 44.37653 | 18.45087 | 35002 ft | 488 kts | 133° |
| 2026-05-05 18:19 | 44.33265 | 18.52278 | 35005 ft | 489 kts | 133° |
| 2026-05-05 18:20 | 44.28843 | 18.59507 | 34999 ft | 490 kts | 133° |
| 2026-05-05 18:20 | 44.24404 | 18.66743 | 35007 ft | 490 kts | 133° |
| 2026-05-05 18:21 | 44.19968 | 18.73959 | 35014 ft | 490 kts | 133° |
| 2026-05-05 18:21 | 44.15553 | 18.81122 | 35014 ft | 489 kts | 133° |
| 2026-05-05 18:22 | 44.11115 | 18.88304 | 35023 ft | 489 kts | 133° |
| 2026-05-05 18:22 | 44.06679 | 18.95464 | 35027 ft | 488 kts | 133° |
| 2026-05-05 18:23 | 44.02231 | 19.02625 | 35022 ft | 488 kts | 133° |
| 2026-05-05 18:23 | 43.97794 | 19.09751 | 35022 ft | 488 kts | 133° |
| 2026-05-05 18:24 | 43.93348 | 19.16875 | 35022 ft | 487 kts | 133° |
| 2026-05-05 18:24 | 43.88905 | 19.23975 | 35026 ft | 488 kts | 133° |
| 2026-05-05 18:25 | 43.84451 | 19.31075 | 35024 ft | 488 kts | 133° |
| 2026-05-05 18:25 | 43.80019 | 19.38124 | 35017 ft | 488 kts | 133° |
| 2026-05-05 18:26 | 43.75550 | 19.45213 | 35013 ft | 488 kts | 133° |
| 2026-05-05 18:26 | 43.71075 | 19.52294 | 35023 ft | 489 kts | 133° |
| 2026-05-05 18:27 | 43.66589 | 19.59376 | 35023 ft | 489 kts | 133° |
| 2026-05-05 18:27 | 43.62107 | 19.66434 | 35022 ft | 489 kts | 133° |
| 2026-05-05 18:28 | 43.55384 | 19.76989 | 35016 ft | 490 kts | 133° |
| 2026-05-05 18:28 | 43.50882 | 19.84034 | 35021 ft | 490 kts | 133° |
| 2026-05-05 18:29 | 43.46366 | 19.91086 | 35021 ft | 490 kts | 133° |
| 2026-05-05 18:29 | 43.41847 | 19.98123 | 35017 ft | 491 kts | 133° |
| 2026-05-05 18:30 | 43.37328 | 20.05146 | 35019 ft | 491 kts | 133° |
| 2026-05-05 18:30 | 43.32796 | 20.12170 | 35021 ft | 491 kts | 133° |
| 2026-05-05 18:31 | 43.28257 | 20.19189 | 35015 ft | 491 kts | 133° |
| 2026-05-05 18:31 | 43.23747 | 20.26147 | 35015 ft | 490 kts | 133° |
| 2026-05-05 18:32 | 43.19181 | 20.33175 | 35019 ft | 490 kts | 133° |
| 2026-05-05 18:32 | 43.14640 | 20.40149 | 35027 ft | 491 kts | 133° |
| 2026-05-05 18:33 | 43.10123 | 20.47073 | 35021 ft | 491 kts | 133° |
| 2026-05-05 18:33 | 43.05568 | 20.54044 | 35019 ft | 492 kts | 133° |
| 2026-05-05 18:34 | 43.00998 | 20.61015 | 35020 ft | 492 kts | 133° |
| 2026-05-05 18:34 | 42.96214 | 20.67691 | 35036 ft | 491 kts | 138° |
| 2026-05-05 18:35 | 42.91224 | 20.74066 | 35027 ft | 491 kts | 139° |
| 2026-05-05 18:35 | 42.86237 | 20.80442 | 35026 ft | 491 kts | 138° |
| 2026-05-05 18:36 | 42.81276 | 20.86864 | 35036 ft | 492 kts | 137° |
| 2026-05-05 18:36 | 42.76327 | 20.93297 | 35044 ft | 492 kts | 137° |
| 2026-05-05 18:37 | 42.71397 | 20.99693 | 35047 ft | 492 kts | 137° |
| 2026-05-05 18:37 | 42.66435 | 21.06112 | 35054 ft | 493 kts | 137° |
| 2026-05-05 18:38 | 42.61449 | 21.12543 | 35053 ft | 493 kts | 137° |
| 2026-05-05 18:38 | 42.56466 | 21.18958 | 35055 ft | 494 kts | 137° |
| 2026-05-05 18:39 | 42.51500 | 21.25334 | 35038 ft | 494 kts | 137° |
| 2026-05-05 18:39 | 42.46493 | 21.31751 | 35033 ft | 495 kts | 137° |
| 2026-05-05 18:40 | 42.41478 | 21.38163 | 35034 ft | 495 kts | 137° |
| 2026-05-05 18:40 | 42.36469 | 21.44555 | 35022 ft | 495 kts | 137° |
| 2026-05-05 18:41 | 42.31444 | 21.50953 | 35014 ft | 496 kts | 137° |
| 2026-05-05 18:41 | 42.26429 | 21.57334 | 35008 ft | 496 kts | 137° |
| 2026-05-05 18:42 | 42.21438 | 21.63682 | 35000 ft | 496 kts | 137° |
| 2026-05-05 18:42 | 42.16498 | 21.70191 | 35002 ft | 496 kts | 136° |
| 2026-05-05 18:43 | 42.11582 | 21.76748 | 35001 ft | 496 kts | 136° |
| 2026-05-05 18:43 | 42.06667 | 21.83273 | 34995 ft | 496 kts | 136° |
| 2026-05-05 18:44 | 42.01770 | 21.89737 | 34995 ft | 496 kts | 136° |
| 2026-05-05 18:44 | 41.96821 | 21.96247 | 34994 ft | 496 kts | 136° |
| 2026-05-05 18:45 | 41.91916 | 22.02685 | 34993 ft | 495 kts | 136° |
| 2026-05-05 18:45 | 41.86968 | 22.09166 | 35007 ft | 495 kts | 136° |
| 2026-05-05 18:46 | 41.82059 | 22.15583 | 35004 ft | 495 kts | 136° |
| 2026-05-05 18:46 | 41.77115 | 22.22030 | 35012 ft | 495 kts | 136° |
| 2026-05-05 18:47 | 41.72164 | 22.28471 | 35014 ft | 495 kts | 136° |
| 2026-05-05 18:47 | 41.67238 | 22.34867 | 35006 ft | 496 kts | 136° |
| 2026-05-05 18:48 | 41.62280 | 22.41289 | 35003 ft | 496 kts | 136° |
| 2026-05-05 18:48 | 41.57300 | 22.47727 | 35008 ft | 496 kts | 136° |
| 2026-05-05 18:49 | 41.52362 | 22.54096 | 35012 ft | 496 kts | 136° |
| 2026-05-05 18:49 | 41.47377 | 22.60513 | 35007 ft | 496 kts | 136° |
| 2026-05-05 18:50 | 41.42425 | 22.66876 | 35013 ft | 496 kts | 136° |
| 2026-05-05 18:50 | 41.37451 | 22.73262 | 35024 ft | 496 kts | 136° |
| 2026-05-05 18:51 | 41.32515 | 22.79632 | 35003 ft | 497 kts | 133° |
| 2026-05-05 18:51 | 41.28057 | 22.86662 | 35010 ft | 496 kts | 128° |
| 2026-05-05 18:52 | 41.23765 | 22.93836 | 35010 ft | 496 kts | 128° |
| 2026-05-05 18:52 | 41.19449 | 23.00982 | 35015 ft | 496 kts | 128° |
| 2026-05-05 18:53 | 41.15114 | 23.08055 | 35010 ft | 496 kts | 128° |
| 2026-05-05 18:53 | 41.10726 | 23.15168 | 35012 ft | 496 kts | 129° |
| 2026-05-05 18:54 | 41.07090 | 23.21047 | 35013 ft | 496 kts | 129° |
| 2026-05-05 18:54 | 41.01990 | 23.29280 | 35018 ft | 496 kts | 129° |
| 2026-05-05 18:55 | 40.98336 | 23.35168 | 35017 ft | 496 kts | 129° |
| 2026-05-05 18:55 | 40.93961 | 23.42203 | 35018 ft | 496 kts | 128° |
| 2026-05-05 18:56 | 40.89564 | 23.49258 | 35020 ft | 497 kts | 128° |
| 2026-05-05 18:56 | 40.85140 | 23.56340 | 35031 ft | 497 kts | 128° |
| 2026-05-05 18:57 | 40.80750 | 23.63352 | 35037 ft | 497 kts | 128° |
| 2026-05-05 18:57 | 40.76329 | 23.70398 | 35028 ft | 498 kts | 128° |
| 2026-05-05 18:58 | 40.71925 | 23.77404 | 35035 ft | 498 kts | 128° |
| 2026-05-05 18:58 | 40.67500 | 23.84429 | 35033 ft | 497 kts | 128° |
| 2026-05-05 18:59 | 40.63074 | 23.91449 | 35035 ft | 498 kts | 128° |
| 2026-05-05 18:59 | 40.58732 | 23.98472 | 35023 ft | 497 kts | 124° |
| 2026-05-05 19:00 | 40.54775 | 24.05927 | 35043 ft | 496 kts | 122° |
| 2026-05-05 19:00 | 40.50890 | 24.13447 | 35041 ft | 496 kts | 122° |
| 2026-05-05 19:01 | 40.47006 | 24.20900 | 35045 ft | 497 kts | 122° |
| 2026-05-05 19:01 | 40.43066 | 24.28385 | 35041 ft | 497 kts | 123° |
| 2026-05-05 19:02 | 40.39114 | 24.35856 | 35043 ft | 498 kts | 123° |
| 2026-05-05 19:02 | 40.35174 | 24.43287 | 35045 ft | 498 kts | 123° |
| 2026-05-05 19:03 | 40.31208 | 24.50752 | 35048 ft | 499 kts | 123° |
| 2026-05-05 19:03 | 40.27230 | 24.58225 | 35041 ft | 499 kts | 123° |
| 2026-05-05 19:04 | 40.23250 | 24.65684 | 35049 ft | 500 kts | 123° |
| 2026-05-05 19:04 | 40.19262 | 24.73140 | 35062 ft | 500 kts | 123° |
| 2026-05-05 19:05 | 40.15261 | 24.80603 | 35053 ft | 501 kts | 123° |
| 2026-05-05 19:05 | 40.11279 | 24.88014 | 35050 ft | 501 kts | 123° |
| 2026-05-05 19:06 | 40.07267 | 24.95465 | 35050 ft | 501 kts | 123° |
| 2026-05-05 19:06 | 40.03249 | 25.02910 | 35049 ft | 502 kts | 123° |
| 2026-05-05 19:07 | 39.99230 | 25.10347 | 35051 ft | 502 kts | 123° |
| 2026-05-05 19:07 | 39.95197 | 25.17796 | 35049 ft | 502 kts | 123° |
| 2026-05-05 19:08 | 39.90939 | 25.24989 | 35049 ft | 504 kts | 134° |
| 2026-05-05 19:08 | 39.85654 | 25.31025 | 35054 ft | 505 kts | 139° |
| 2026-05-05 19:09 | 39.80265 | 25.36878 | 35050 ft | 505 kts | 139° |
| 2026-05-05 19:09 | 39.74899 | 25.42783 | 35053 ft | 505 kts | 139° |
| 2026-05-05 19:10 | 39.69572 | 25.48712 | 35057 ft | 504 kts | 139° |
| 2026-05-05 19:10 | 39.64246 | 25.54649 | 35059 ft | 504 kts | 139° |
| 2026-05-05 19:11 | 39.58919 | 25.60571 | 35061 ft | 504 kts | 139° |
| 2026-05-05 19:11 | 39.53620 | 25.66446 | 35062 ft | 504 kts | 139° |
| 2026-05-05 19:12 | 39.48280 | 25.72352 | 35060 ft | 504 kts | 139° |
| 2026-05-05 19:12 | 39.42943 | 25.78242 | 35062 ft | 504 kts | 139° |
| 2026-05-05 19:13 | 39.37602 | 25.84125 | 35068 ft | 504 kts | 139° |
| 2026-05-05 19:13 | 39.32288 | 25.89966 | 35064 ft | 504 kts | 139° |
| 2026-05-05 19:14 | 39.26933 | 25.95840 | 35067 ft | 505 kts | 139° |
| 2026-05-05 19:14 | 39.21574 | 26.01707 | 35067 ft | 505 kts | 139° |
| 2026-05-05 19:15 | 39.16215 | 26.07562 | 35065 ft | 505 kts | 139° |
| 2026-05-05 19:15 | 39.10841 | 26.13422 | 35069 ft | 505 kts | 139° |
| 2026-05-05 19:16 | 39.05475 | 26.19262 | 35060 ft | 505 kts | 139° |
| 2026-05-05 19:16 | 39.00131 | 26.25068 | 35065 ft | 505 kts | 139° |
| 2026-05-05 19:17 | 38.94747 | 26.30910 | 35066 ft | 506 kts | 139° |
| 2026-05-05 19:17 | 38.89365 | 26.36740 | 35066 ft | 506 kts | 140° |
| 2026-05-05 19:18 | 38.84576 | 26.43268 | 35078 ft | 500 kts | 118° |
| 2026-05-05 19:18 | 38.83037 | 26.47175 | 35058 ft | 496 kts | 107° |
| 2026-05-05 19:18 | 38.82122 | 26.51400 | 35058 ft | 488 kts | 95° |
| 2026-05-05 19:19 | 38.81145 | 26.60023 | 35066 ft | 488 kts | 94° |
| 2026-05-05 19:19 | 38.80165 | 26.68643 | 35064 ft | 490 kts | 94° |
| 2026-05-05 19:20 | 38.79113 | 26.77250 | 35059 ft | 491 kts | 95° |
| 2026-05-05 19:20 | 38.78032 | 26.85920 | 35058 ft | 492 kts | 95° |
| 2026-05-05 19:21 | 38.76374 | 26.94427 | 35050 ft | 502 kts | 114° |
| 2026-05-05 19:21 | 38.74508 | 26.98220 | 35065 ft | 506 kts | 128° |
| 2026-05-05 19:21 | 38.71987 | 27.01392 | 35054 ft | 509 kts | 143° |
| 2026-05-05 19:22 | 38.66265 | 27.06681 | 35048 ft | 509 kts | 145° |
| 2026-05-05 19:22 | 38.60522 | 27.11922 | 35041 ft | 509 kts | 144° |
| 2026-05-05 19:23 | 38.54778 | 27.17272 | 35048 ft | 509 kts | 144° |
| 2026-05-05 19:23 | 38.49102 | 27.22619 | 35043 ft | 508 kts | 144° |
| 2026-05-05 19:24 | 38.43408 | 27.27987 | 35051 ft | 507 kts | 144° |
| 2026-05-05 19:24 | 38.37718 | 27.33336 | 35049 ft | 508 kts | 144° |
| 2026-05-05 19:25 | 38.32062 | 27.38636 | 35040 ft | 507 kts | 144° |
| 2026-05-05 19:25 | 38.26367 | 27.43961 | 35051 ft | 506 kts | 144° |
| 2026-05-05 19:26 | 38.20683 | 27.49266 | 35049 ft | 506 kts | 144° |
| 2026-05-05 19:26 | 38.14999 | 27.54560 | 35046 ft | 506 kts | 144° |
| 2026-05-05 19:27 | 38.09307 | 27.59850 | 35052 ft | 508 kts | 144° |
| 2026-05-05 19:27 | 38.03620 | 27.65126 | 35047 ft | 510 kts | 144° |
| 2026-05-05 19:28 | 37.97873 | 27.70447 | 35047 ft | 511 kts | 144° |